KLM59T MDSD-TJSJ
Flight info
| Callsign | KLM59T |
|---|---|
| Flight time | 0h 43m |
| Altitude | 27000 |
| Route | MELLA2J MELLA G633 MAZ RTE12 JOSHE JOSHE3 |
| Aircraft | A20N/M-SDE2E3FGHIRWXY/LB1 |
Departure
| Time | 2026-05-04 21:02 |
|---|---|
| Airport | Las Américas International Airport (MDSD) |
Arrival
| Time | 2026-05-04 21:46 |
|---|---|
| Airport | Luis Munoz Marin International Airport (TJSJ) |
| Time | Latitude | Longitude | Altitude | Speed | Heading |
|---|---|---|---|---|---|
| 2026-05-04 20:30 | 18.43215 | -69.67600 | 62 ft | 0 kts | 242° |
| 2026-05-04 20:49 | 18.43221 | -69.67587 | 55 ft | 2 kts | 243° |
| 2026-05-04 20:50 | 18.43229 | -69.67571 | 56 ft | 2 kts | 243° |
| 2026-05-04 20:50 | 18.43236 | -69.67556 | 57 ft | 2 kts | 245° |
| 2026-05-04 20:50 | 18.43243 | -69.67540 | 58 ft | 2 kts | 249° |
| 2026-05-04 20:50 | 18.43248 | -69.67523 | 55 ft | 2 kts | 264° |
| 2026-05-04 20:51 | 18.43244 | -69.67507 | 55 ft | 2 kts | 329° |
| 2026-05-04 20:51 | 18.43239 | -69.67504 | 56 ft | 0 kts | 336° |
| 2026-05-04 20:52 | 18.43240 | -69.67505 | 55 ft | 0 kts | 335° |
| 2026-05-04 20:55 | 18.43241 | -69.67506 | 62 ft | 1 kts | 335° |
| 2026-05-04 20:55 | 18.43275 | -69.67520 | 57 ft | 9 kts | 339° |
| 2026-05-04 20:56 | 18.43347 | -69.67546 | 62 ft | 11 kts | 346° |
| 2026-05-04 20:56 | 18.43368 | -69.67548 | 61 ft | 3 kts | 1° |
| 2026-05-04 20:56 | 18.43400 | -69.67538 | 58 ft | 7 kts | 19° |
| 2026-05-04 20:56 | 18.43464 | -69.67538 | 55 ft | 11 kts | 335° |
| 2026-05-04 20:57 | 18.43529 | -69.67564 | 60 ft | 9 kts | 339° |
| 2026-05-04 20:57 | 18.43542 | -69.67570 | 57 ft | 4 kts | 335° |
| 2026-05-04 20:57 | 18.43581 | -69.67588 | 57 ft | 8 kts | 340° |
| 2026-05-04 20:57 | 18.43651 | -69.67616 | 57 ft | 13 kts | 339° |
| 2026-05-04 20:58 | 18.43737 | -69.67651 | 55 ft | 15 kts | 340° |
| 2026-05-04 20:58 | 18.43847 | -69.67696 | 58 ft | 19 kts | 339° |
| 2026-05-04 20:58 | 18.43993 | -69.67755 | 57 ft | 25 kts | 340° |
| 2026-05-04 20:58 | 18.44128 | -69.67778 | 57 ft | 15 kts | 44° |
| 2026-05-04 20:59 | 18.44159 | -69.67700 | 54 ft | 13 kts | 68° |
| 2026-05-04 20:59 | 18.44187 | -69.67615 | 52 ft | 8 kts | 68° |
| 2026-05-04 20:59 | 18.44229 | -69.67560 | 54 ft | 12 kts | 32° |
| 2026-05-04 20:59 | 18.44306 | -69.67520 | 55 ft | 5 kts | 24° |
| 2026-05-04 21:00 | 18.44307 | -69.67520 | 57 ft | 0 kts | 24° |
| 2026-05-04 21:01 | 18.44327 | -69.67508 | 55 ft | 14 kts | 34° |
| 2026-05-04 21:01 | 18.44349 | -69.67397 | 56 ft | 18 kts | 150° |
| 2026-05-04 21:01 | 18.44323 | -69.67391 | 50 ft | 7 kts | 170° |
| 2026-05-04 21:01 | 18.44193 | -69.67345 | 56 ft | 49 kts | 159° |
| 2026-05-04 21:02 | 18.43610 | -69.67131 | 55 ft | 125 kts | 161° |
| 2026-05-04 21:02 | 18.42633 | -69.66757 | 392 ft | 162 kts | 162° |
| 2026-05-04 21:02 | 18.41535 | -69.66363 | 958 ft | 172 kts | 163° |
| 2026-05-04 21:02 | 18.40313 | -69.65928 | 1543 ft | 196 kts | 162° |
| 2026-05-04 21:03 | 18.38943 | -69.65430 | 2187 ft | 220 kts | 161° |
| 2026-05-04 21:03 | 18.37501 | -69.64692 | 2820 ft | 243 kts | 142° |
| 2026-05-04 21:03 | 18.36449 | -69.63310 | 3432 ft | 252 kts | 116° |
| 2026-05-04 21:03 | 18.35923 | -69.61514 | 4104 ft | 258 kts | 107° |
| 2026-05-04 21:04 | 18.35449 | -69.59637 | 4366 ft | 261 kts | 107° |
| 2026-05-04 21:04 | 18.34987 | -69.57814 | 4474 ft | 262 kts | 107° |
| 2026-05-04 21:04 | 18.34509 | -69.55959 | 4585 ft | 262 kts | 107° |
| 2026-05-04 21:04 | 18.34031 | -69.54122 | 4697 ft | 260 kts | 107° |
| 2026-05-04 21:05 | 18.33550 | -69.52289 | 4797 ft | 260 kts | 107° |
| 2026-05-04 21:05 | 18.33060 | -69.50441 | 4896 ft | 264 kts | 106° |
| 2026-05-04 21:05 | 18.32571 | -69.48589 | 4997 ft | 263 kts | 106° |
| 2026-05-04 21:05 | 18.32082 | -69.46731 | 4998 ft | 261 kts | 107° |
| 2026-05-04 21:06 | 18.31598 | -69.44891 | 4998 ft | 261 kts | 107° |
| 2026-05-04 21:06 | 18.31110 | -69.43046 | 4997 ft | 263 kts | 106° |
| 2026-05-04 21:06 | 18.30744 | -69.41165 | 4997 ft | 262 kts | 97° |
| 2026-05-04 21:06 | 18.30628 | -69.39250 | 4996 ft | 264 kts | 95° |
| 2026-05-04 21:07 | 18.30517 | -69.37301 | 5234 ft | 267 kts | 95° |
| 2026-05-04 21:07 | 18.30401 | -69.35374 | 6132 ft | 266 kts | 95° |
| 2026-05-04 21:07 | 18.30283 | -69.33436 | 7157 ft | 268 kts | 95° |
| 2026-05-04 21:07 | 18.30160 | -69.31449 | 7994 ft | 276 kts | 95° |
| 2026-05-04 21:08 | 18.30036 | -69.29413 | 8859 ft | 282 kts | 95° |
| 2026-05-04 21:08 | 18.29909 | -69.27336 | 9740 ft | 287 kts | 95° |
| 2026-05-04 21:08 | 18.29777 | -69.25199 | 10375 ft | 301 kts | 95° |
| 2026-05-04 21:08 | 18.29634 | -69.22908 | 10650 ft | 326 kts | 95° |
| 2026-05-04 21:09 | 18.29482 | -69.20444 | 11012 ft | 345 kts | 95° |
| 2026-05-04 21:09 | 18.29326 | -69.17907 | 11741 ft | 350 kts | 95° |
| 2026-05-04 21:09 | 18.29167 | -69.15333 | 12458 ft | 356 kts | 94° |
| 2026-05-04 21:09 | 18.29005 | -69.12704 | 13143 ft | 362 kts | 95° |
| 2026-05-04 21:10 | 18.28839 | -69.10031 | 13818 ft | 369 kts | 94° |
| 2026-05-04 21:10 | 18.28669 | -69.07313 | 14456 ft | 374 kts | 94° |
| 2026-05-04 21:10 | 18.28497 | -69.04570 | 15056 ft | 380 kts | 94° |
| 2026-05-04 21:10 | 18.28320 | -69.01761 | 15588 ft | 388 kts | 94° |
| 2026-05-04 21:11 | 18.28143 | -68.98937 | 16353 ft | 388 kts | 94° |
| 2026-05-04 21:11 | 18.27963 | -68.96085 | 16932 ft | 394 kts | 93° |
| 2026-05-04 21:11 | 18.27782 | -68.93222 | 17536 ft | 398 kts | 93° |
| 2026-05-04 21:11 | 18.27597 | -68.90300 | 18156 ft | 403 kts | 93° |
| 2026-05-04 21:12 | 18.27409 | -68.87339 | 18700 ft | 407 kts | 93° |
| 2026-05-04 21:12 | 18.27220 | -68.84368 | 19289 ft | 409 kts | 94° |
| 2026-05-04 21:12 | 18.27030 | -68.81370 | 19863 ft | 411 kts | 94° |
| 2026-05-04 21:12 | 18.26837 | -68.78352 | 20423 ft | 414 kts | 94° |
| 2026-05-04 21:13 | 18.26642 | -68.75298 | 20919 ft | 419 kts | 94° |
| 2026-05-04 21:13 | 18.26446 | -68.72245 | 21562 ft | 419 kts | 95° |
| 2026-05-04 21:13 | 18.26250 | -68.69178 | 22124 ft | 421 kts | 95° |
| 2026-05-04 21:13 | 18.26119 | -68.67133 | 22428 ft | 425 kts | 95° |
| 2026-05-04 21:14 | 18.25919 | -68.64032 | 23051 ft | 424 kts | 95° |
| 2026-05-04 21:14 | 18.25654 | -68.59915 | 23718 ft | 428 kts | 95° |
| 2026-05-04 21:14 | 18.25450 | -68.56772 | 24114 ft | 432 kts | 95° |
| 2026-05-04 21:14 | 18.25310 | -68.54635 | 24397 ft | 434 kts | 95° |
| 2026-05-04 21:15 | 18.25103 | -68.51454 | 24786 ft | 438 kts | 95° |
| 2026-05-04 21:15 | 18.24893 | -68.48245 | 25171 ft | 441 kts | 95° |
| 2026-05-04 21:15 | 18.24684 | -68.45066 | 25577 ft | 443 kts | 95° |
| 2026-05-04 21:15 | 18.24470 | -68.41810 | 25871 ft | 449 kts | 95° |
| 2026-05-04 21:16 | 18.24253 | -68.38525 | 26218 ft | 452 kts | 94° |
| 2026-05-04 21:16 | 18.24034 | -68.35223 | 26563 ft | 453 kts | 94° |
| 2026-05-04 21:16 | 18.23813 | -68.31906 | 26668 ft | 455 kts | 94° |
| 2026-05-04 21:16 | 18.23592 | -68.28590 | 26767 ft | 453 kts | 94° |
| 2026-05-04 21:17 | 18.23372 | -68.25279 | 26869 ft | 455 kts | 94° |
| 2026-05-04 21:17 | 18.23149 | -68.21946 | 26969 ft | 458 kts | 94° |
| 2026-05-04 21:17 | 18.22925 | -68.18609 | 26982 ft | 455 kts | 94° |
| 2026-05-04 21:17 | 18.22701 | -68.15290 | 26990 ft | 457 kts | 94° |
| 2026-05-04 21:18 | 18.22475 | -68.11944 | 26985 ft | 459 kts | 94° |
| 2026-05-04 21:18 | 18.22250 | -68.08612 | 26985 ft | 455 kts | 94° |
| 2026-05-04 21:18 | 18.22025 | -68.05287 | 26988 ft | 458 kts | 94° |
| 2026-05-04 21:18 | 18.21799 | -68.01953 | 26985 ft | 457 kts | 94° |
| 2026-05-04 21:19 | 18.21701 | -67.98626 | 26987 ft | 456 kts | 88° |
| 2026-05-04 21:19 | 18.21825 | -67.95270 | 26985 ft | 459 kts | 88° |
| 2026-05-04 21:19 | 18.21948 | -67.91918 | 26985 ft | 457 kts | 88° |
| 2026-05-04 21:19 | 18.22066 | -67.88616 | 26987 ft | 460 kts | 88° |
| 2026-05-04 21:20 | 18.22183 | -67.85251 | 26983 ft | 457 kts | 88° |
| 2026-05-04 21:20 | 18.22298 | -67.81923 | 26988 ft | 456 kts | 88° |
| 2026-05-04 21:20 | 18.22413 | -67.78563 | 26985 ft | 460 kts | 88° |
| 2026-05-04 21:20 | 18.22527 | -67.75219 | 26986 ft | 455 kts | 88° |
| 2026-05-04 21:21 | 18.22641 | -67.71869 | 26983 ft | 459 kts | 88° |
| 2026-05-04 21:21 | 18.22754 | -67.68516 | 26983 ft | 457 kts | 88° |
| 2026-05-04 21:21 | 18.22866 | -67.65173 | 26986 ft | 459 kts | 88° |
| 2026-05-04 21:21 | 18.22978 | -67.61824 | 26988 ft | 457 kts | 88° |
| 2026-05-04 21:22 | 18.23087 | -67.58539 | 26986 ft | 455 kts | 88° |
| 2026-05-04 21:22 | 18.23198 | -67.55202 | 26985 ft | 458 kts | 88° |
| 2026-05-04 21:22 | 18.23308 | -67.51830 | 26988 ft | 453 kts | 88° |
| 2026-05-04 21:22 | 18.23422 | -67.48560 | 26985 ft | 454 kts | 87° |
| 2026-05-04 21:23 | 18.23618 | -67.45245 | 26982 ft | 453 kts | 85° |
| 2026-05-04 21:23 | 18.23855 | -67.41937 | 26989 ft | 455 kts | 85° |
| 2026-05-04 21:23 | 18.24096 | -67.38619 | 26938 ft | 454 kts | 85° |
| 2026-05-04 21:23 | 18.24326 | -67.35326 | 26719 ft | 449 kts | 85° |
| 2026-05-04 21:24 | 18.24545 | -67.32085 | 26535 ft | 438 kts | 86° |
| 2026-05-04 21:24 | 18.24752 | -67.28943 | 26406 ft | 423 kts | 86° |
| 2026-05-04 21:24 | 18.24950 | -67.25906 | 26276 ft | 409 kts | 86° |
| 2026-05-04 21:24 | 18.25141 | -67.22966 | 26161 ft | 395 kts | 86° |
| 2026-05-04 21:25 | 18.25324 | -67.20131 | 25985 ft | 383 kts | 86° |
| 2026-05-04 21:25 | 18.25503 | -67.17357 | 25646 ft | 377 kts | 86° |
| 2026-05-04 21:25 | 18.25643 | -67.14618 | 25226 ft | 373 kts | 91° |
| 2026-05-04 21:25 | 18.25586 | -67.11895 | 24804 ft | 370 kts | 92° |
| 2026-05-04 21:26 | 18.25528 | -67.09208 | 24313 ft | 364 kts | 92° |
| 2026-05-04 21:26 | 18.25474 | -67.06560 | 23731 ft | 360 kts | 93° |
| 2026-05-04 21:26 | 18.25425 | -67.03941 | 23089 ft | 356 kts | 93° |
| 2026-05-04 21:26 | 18.25371 | -67.01335 | 22252 ft | 357 kts | 92° |
| 2026-05-04 21:27 | 18.25313 | -66.98722 | 21495 ft | 357 kts | 92° |
| 2026-05-04 21:27 | 18.25257 | -66.96141 | 20705 ft | 359 kts | 92° |
| 2026-05-04 21:27 | 18.25199 | -66.93471 | 19966 ft | 360 kts | 91° |
| 2026-05-04 21:27 | 18.25142 | -66.90858 | 19403 ft | 356 kts | 91° |
| 2026-05-04 21:28 | 18.25087 | -66.88305 | 18961 ft | 348 kts | 91° |
| 2026-05-04 21:28 | 18.25031 | -66.85756 | 18508 ft | 341 kts | 90° |
| 2026-05-04 21:28 | 18.24977 | -66.83312 | 17946 ft | 338 kts | 90° |
| 2026-05-04 21:28 | 18.24924 | -66.80833 | 17261 ft | 338 kts | 90° |
| 2026-05-04 21:29 | 18.24872 | -66.78368 | 16682 ft | 334 kts | 91° |
| 2026-05-04 21:29 | 18.24820 | -66.75951 | 16255 ft | 325 kts | 91° |
| 2026-05-04 21:29 | 18.24768 | -66.73587 | 15724 ft | 321 kts | 91° |
| 2026-05-04 21:29 | 18.24716 | -66.71241 | 15138 ft | 319 kts | 91° |
| 2026-05-04 21:30 | 18.24665 | -66.68940 | 14735 ft | 311 kts | 91° |
| 2026-05-04 21:30 | 18.24615 | -66.66677 | 14216 ft | 308 kts | 91° |
| 2026-05-04 21:30 | 18.24566 | -66.64444 | 13732 ft | 303 kts | 92° |
| 2026-05-04 21:30 | 18.24518 | -66.62241 | 13189 ft | 299 kts | 92° |
| 2026-05-04 21:31 | 18.24425 | -66.57908 | 12108 ft | 292 kts | 93° |
| 2026-05-04 21:31 | 18.24379 | -66.55818 | 11871 ft | 277 kts | 92° |
| 2026-05-04 21:31 | 18.24334 | -66.53848 | 11676 ft | 261 kts | 93° |
| 2026-05-04 21:32 | 18.24292 | -66.51995 | 11473 ft | 248 kts | 94° |
| 2026-05-04 21:32 | 18.24251 | -66.50196 | 11058 ft | 244 kts | 95° |
| 2026-05-04 21:32 | 18.24033 | -66.48453 | 10543 ft | 239 kts | 115° |
| 2026-05-04 21:32 | 18.23067 | -66.47090 | 10119 ft | 231 kts | 146° |
| 2026-05-04 21:33 | 18.21622 | -66.46526 | 9948 ft | 218 kts | 178° |
| 2026-05-04 21:33 | 18.20140 | -66.46901 | 9821 ft | 233 kts | 212° |
| 2026-05-04 21:33 | 18.19058 | -66.48044 | 10498 ft | 213 kts | 221° |
| 2026-05-04 21:33 | 18.17976 | -66.49086 | 10498 ft | 211 kts | 220° |
| 2026-05-04 21:34 | 18.16993 | -66.50244 | 10226 ft | 214 kts | 232° |
| 2026-05-04 21:34 | 18.16240 | -66.51645 | 9713 ft | 227 kts | 243° |
| 2026-05-04 21:34 | 18.15700 | -66.53258 | 9118 ft | 239 kts | 251° |
| 2026-05-04 21:34 | 18.15296 | -66.54973 | 8709 ft | 243 kts | 256° |
| 2026-05-04 21:35 | 18.15263 | -66.56756 | 8316 ft | 248 kts | 280° |
| 2026-05-04 21:35 | 18.15957 | -66.58425 | 7951 ft | 253 kts | 307° |
| 2026-05-04 21:35 | 18.17279 | -66.59580 | 7579 ft | 253 kts | 338° |
| 2026-05-04 21:35 | 18.18952 | -66.59889 | 7327 ft | 242 kts | 10° |
| 2026-05-04 21:36 | 18.20632 | -66.59221 | 7247 ft | 274 kts | 38° |
| 2026-05-04 21:36 | 18.21906 | -66.57730 | 7160 ft | 278 kts | 65° |
| 2026-05-04 21:36 | 18.22637 | -66.55847 | 7071 ft | 279 kts | 75° |
| 2026-05-04 21:36 | 18.23182 | -66.53913 | 7014 ft | 273 kts | 77° |
| 2026-05-04 21:37 | 18.23703 | -66.52012 | 7009 ft | 271 kts | 76° |
| 2026-05-04 21:37 | 18.24333 | -66.50128 | 6868 ft | 275 kts | 68° |
| 2026-05-04 21:37 | 18.25292 | -66.48402 | 6675 ft | 274 kts | 59° |
| 2026-05-04 21:37 | 18.26350 | -66.46747 | 6328 ft | 273 kts | 59° |
| 2026-05-04 21:38 | 18.27404 | -66.45094 | 6015 ft | 268 kts | 58° |
| 2026-05-04 21:38 | 18.28457 | -66.43440 | 5922 ft | 279 kts | 58° |
| 2026-05-04 21:38 | 18.29533 | -66.41743 | 5833 ft | 278 kts | 58° |
| 2026-05-04 21:38 | 18.30606 | -66.40062 | 5800 ft | 276 kts | 58° |
| 2026-05-04 21:39 | 18.31678 | -66.38377 | 5799 ft | 277 kts | 58° |
| 2026-05-04 21:39 | 18.32744 | -66.36692 | 5647 ft | 275 kts | 58° |
| 2026-05-04 21:39 | 18.33788 | -66.35049 | 5385 ft | 273 kts | 58° |
| 2026-05-04 21:39 | 18.34842 | -66.33388 | 5010 ft | 272 kts | 58° |
| 2026-05-04 21:40 | 18.35899 | -66.31725 | 4505 ft | 275 kts | 59° |
| 2026-05-04 21:40 | 18.36980 | -66.30025 | 3855 ft | 284 kts | 59° |
| 2026-05-04 21:40 | 18.38091 | -66.28271 | 3201 ft | 292 kts | 59° |
| 2026-05-04 21:40 | 18.39234 | -66.26473 | 2693 ft | 295 kts | 58° |
| 2026-05-04 21:41 | 18.40351 | -66.24726 | 2582 ft | 280 kts | 59° |
| 2026-05-04 21:41 | 18.41416 | -66.23064 | 2479 ft | 266 kts | 59° |
| 2026-05-04 21:41 | 18.42430 | -66.21482 | 2327 ft | 257 kts | 59° |
| 2026-05-04 21:41 | 18.43195 | -66.19837 | 2074 ft | 245 kts | 80° |
| 2026-05-04 21:42 | 18.43407 | -66.18091 | 1857 ft | 239 kts | 91° |
| 2026-05-04 21:42 | 18.43375 | -66.16360 | 1708 ft | 232 kts | 94° |
| 2026-05-04 21:42 | 18.43377 | -66.14685 | 1537 ft | 222 kts | 92° |
| 2026-05-04 21:42 | 18.43374 | -66.13110 | 1480 ft | 209 kts | 94° |
| 2026-05-04 21:43 | 18.43372 | -66.11628 | 1477 ft | 195 kts | 94° |
| 2026-05-04 21:43 | 18.43371 | -66.10263 | 1476 ft | 178 kts | 94° |
| 2026-05-04 21:43 | 18.43367 | -66.09011 | 1423 ft | 169 kts | 94° |
| 2026-05-04 21:43 | 18.43365 | -66.07786 | 1195 ft | 163 kts | 91° |
| 2026-05-04 21:44 | 18.43365 | -66.06647 | 981 ft | 147 kts | 94° |
| 2026-05-04 21:44 | 18.43362 | -66.05624 | 806 ft | 138 kts | 94° |
| 2026-05-04 21:44 | 18.43360 | -66.04623 | 659 ft | 132 kts | 95° |
| 2026-05-04 21:44 | 18.43359 | -66.03674 | 473 ft | 127 kts | 92° |
| 2026-05-04 21:45 | 18.43365 | -66.02735 | 301 ft | 132 kts | 93° |
| 2026-05-04 21:45 | 18.43357 | -66.01812 | 163 ft | 124 kts | 94° |
| 2026-05-04 21:45 | 18.43359 | -66.00941 | 32 ft | 111 kts | 96° |
| 2026-05-04 21:45 | 18.43354 | -66.00259 | 17 ft | 58 kts | 88° |
| 2026-05-04 21:46 | 18.43395 | -65.99940 | 21 ft | 30 kts | 64° |
| 2026-05-04 21:46 | 18.43455 | -65.99903 | 19 ft | 0 kts | 316° |
| 2026-05-04 21:49 | 18.43496 | -65.99912 | 19 ft | 11 kts | 354° |
| 2026-05-04 21:49 | 18.43562 | -65.99968 | 21 ft | 16 kts | 273° |
| 2026-05-04 21:50 | 18.43561 | -66.00102 | 18 ft | 15 kts | 274° |
| 2026-05-04 21:50 | 18.43618 | -66.00142 | 18 ft | 0 kts | 5° |